LSP5231 KMIA-MROC
Flight info
| Callsign | LSP5231 |
|---|---|
| Flight time | N/A |
| Altitude | 33000 |
| Route | MAYNR3 FUNDI UM335 ALVEK UM328 SELEK UZ403 PIRAS BARRA4P |
| Aircraft | B77L/H-SDE1E2E3FGHIJ2J3J4J5M1RWXY/LB1D1 |
Departure
| Time | 2026-04-30 21:49 |
|---|---|
| Airport | Miami International Airport (KMIA) |
Arrival
| Time | N/A |
|---|---|
| Airport | Juan Santamaría International Airport (MROC) |
| Time | Latitude | Longitude | Altitude | Speed | Heading |
|---|---|---|---|---|---|
| 2026-04-30 21:17 | 25.79067 | -80.30642 | 19 ft | 0 kts | 269° |
| 2026-04-30 21:32 | 25.79068 | -80.30608 | 22 ft | 4 kts | 269° |
| 2026-04-30 21:32 | 25.79070 | -80.30584 | 24 ft | 4 kts | 246° |
| 2026-04-30 21:32 | 25.79085 | -80.30567 | 23 ft | 4 kts | 188° |
| 2026-04-30 21:32 | 25.79090 | -80.30566 | 23 ft | 4 kts | 179° |
| 2026-04-30 21:33 | 25.79063 | -80.30565 | 23 ft | 4 kts | 179° |
| 2026-04-30 21:33 | 25.79009 | -80.30564 | 19 ft | 4 kts | 179° |
| 2026-04-30 21:33 | 25.78982 | -80.30563 | 19 ft | 4 kts | 179° |
| 2026-04-30 21:34 | 25.78955 | -80.30562 | 19 ft | 4 kts | 179° |
| 2026-04-30 21:34 | 25.78938 | -80.30562 | 19 ft | 0 kts | 179° |
| 2026-04-30 21:38 | 25.78936 | -80.30562 | 19 ft | 3 kts | 179° |
| 2026-04-30 21:38 | 25.78878 | -80.30559 | 19 ft | 11 kts | 169° |
| 2026-04-30 21:38 | 25.78846 | -80.30490 | 19 ft | 11 kts | 90° |
| 2026-04-30 21:38 | 25.78848 | -80.30405 | 19 ft | 11 kts | 88° |
| 2026-04-30 21:39 | 25.78852 | -80.30321 | 19 ft | 11 kts | 86° |
| 2026-04-30 21:39 | 25.78857 | -80.30237 | 19 ft | 11 kts | 86° |
| 2026-04-30 21:39 | 25.78859 | -80.30148 | 19 ft | 13 kts | 89° |
| 2026-04-30 21:39 | 25.78861 | -80.30037 | 20 ft | 16 kts | 89° |
| 2026-04-30 21:40 | 25.78869 | -80.29900 | 20 ft | 19 kts | 88° |
| 2026-04-30 21:40 | 25.78875 | -80.29739 | 19 ft | 22 kts | 86° |
| 2026-04-30 21:40 | 25.78883 | -80.29555 | 20 ft | 25 kts | 88° |
| 2026-04-30 21:40 | 25.78893 | -80.29358 | 19 ft | 26 kts | 88° |
| 2026-04-30 21:41 | 25.78899 | -80.29161 | 19 ft | 25 kts | 88° |
| 2026-04-30 21:41 | 25.78910 | -80.29018 | 19 ft | 17 kts | 81° |
| 2026-04-30 21:41 | 25.78944 | -80.28897 | 21 ft | 16 kts | 53° |
| 2026-04-30 21:41 | 25.79052 | -80.28881 | 19 ft | 16 kts | 348° |
| 2026-04-30 21:42 | 25.79125 | -80.28970 | 19 ft | 16 kts | 295° |
| 2026-04-30 21:42 | 25.79180 | -80.29080 | 19 ft | 16 kts | 300° |
| 2026-04-30 21:42 | 25.79225 | -80.29193 | 19 ft | 16 kts | 285° |
| 2026-04-30 21:42 | 25.79277 | -80.29305 | 19 ft | 16 kts | 300° |
| 2026-04-30 21:43 | 25.79333 | -80.29414 | 19 ft | 17 kts | 298° |
| 2026-04-30 21:43 | 25.79390 | -80.29530 | 20 ft | 17 kts | 302° |
| 2026-04-30 21:43 | 25.79451 | -80.29646 | 20 ft | 18 kts | 298° |
| 2026-04-30 21:43 | 25.79510 | -80.29766 | 20 ft | 18 kts | 301° |
| 2026-04-30 21:44 | 25.79573 | -80.29884 | 19 ft | 18 kts | 301° |
| 2026-04-30 21:44 | 25.79633 | -80.30003 | 19 ft | 18 kts | 299° |
| 2026-04-30 21:44 | 25.79659 | -80.30056 | 19 ft | 18 kts | 299° |
| 2026-04-30 21:44 | 25.79707 | -80.30149 | 19 ft | 18 kts | 299° |
| 2026-04-30 21:45 | 25.79761 | -80.30254 | 19 ft | 12 kts | 299° |
| 2026-04-30 21:45 | 25.79832 | -80.30272 | 19 ft | 12 kts | 21° |
| 2026-04-30 21:45 | 25.79907 | -80.30228 | 19 ft | 12 kts | 29° |
| 2026-04-30 21:45 | 25.79957 | -80.30158 | 19 ft | 12 kts | 78° |
| 2026-04-30 21:46 | 25.79990 | -80.30128 | 19 ft | 4 kts | 356° |
| 2026-04-30 21:46 | 25.80018 | -80.30130 | 19 ft | 4 kts | 355° |
| 2026-04-30 21:46 | 25.80047 | -80.30127 | 19 ft | 5 kts | 16° |
| 2026-04-30 21:46 | 25.80070 | -80.30097 | 18 ft | 6 kts | 69° |
| 2026-04-30 21:47 | 25.80075 | -80.30053 | 18 ft | 0 kts | 87° |
| 2026-04-30 21:48 | 25.80075 | -80.30051 | 18 ft | 5 kts | 87° |
| 2026-04-30 21:48 | 25.80089 | -80.29692 | 18 ft | 90 kts | 88° |
| 2026-04-30 21:48 | 25.80131 | -80.28696 | 22 ft | 166 kts | 88° |
| 2026-04-30 21:49 | 25.80206 | -80.27250 | 289 ft | 195 kts | 90° |
| 2026-04-30 21:49 | 25.80154 | -80.25805 | 1212 ft | 191 kts | 107° |
| 2026-04-30 21:49 | 25.79498 | -80.24504 | 1715 ft | 197 kts | 140° |
| 2026-04-30 21:49 | 25.78363 | -80.23496 | 1977 ft | 225 kts | 142° |
| 2026-04-30 21:50 | 25.77071 | -80.22337 | 2338 ft | 248 kts | 144° |
| 2026-04-30 21:50 | 25.75706 | -80.21084 | 3003 ft | 263 kts | 143° |
| 2026-04-30 21:50 | 25.74229 | -80.19808 | 3583 ft | 272 kts | 154° |
| 2026-04-30 21:50 | 25.72446 | -80.19161 | 4366 ft | 270 kts | 177° |
| 2026-04-30 21:51 | 25.70569 | -80.19081 | 5155 ft | 272 kts | 182° |
| 2026-04-30 21:51 | 25.68657 | -80.19027 | 5918 ft | 278 kts | 181° |
| 2026-04-30 21:51 | 25.66717 | -80.19037 | 6718 ft | 279 kts | 188° |
| 2026-04-30 21:51 | 25.64796 | -80.19293 | 7447 ft | 283 kts | 191° |
| 2026-04-30 21:52 | 25.62830 | -80.19603 | 8170 ft | 286 kts | 193° |
| 2026-04-30 21:52 | 25.60953 | -80.20303 | 8728 ft | 287 kts | 212° |
| 2026-04-30 21:52 | 25.59214 | -80.21442 | 9351 ft | 293 kts | 213° |
| 2026-04-30 21:52 | 25.57446 | -80.22588 | 10171 ft | 294 kts | 213° |
| 2026-04-30 21:53 | 25.55650 | -80.23743 | 10712 ft | 307 kts | 213° |
| 2026-04-30 21:53 | 25.53723 | -80.24980 | 10880 ft | 332 kts | 212° |
| 2026-04-30 21:53 | 25.51643 | -80.26308 | 11062 ft | 356 kts | 212° |
| 2026-04-30 21:53 | 25.49453 | -80.27699 | 11359 ft | 375 kts | 212° |
| 2026-04-30 21:54 | 25.47149 | -80.29155 | 11947 ft | 384 kts | 212° |
| 2026-04-30 21:54 | 25.44809 | -80.30631 | 12645 ft | 389 kts | 212° |
| 2026-04-30 21:54 | 25.42444 | -80.32120 | 13438 ft | 392 kts | 212° |
| 2026-04-30 21:54 | 25.40059 | -80.33621 | 14172 ft | 396 kts | 212° |
| 2026-04-30 21:55 | 25.37653 | -80.35136 | 14825 ft | 400 kts | 212° |
| 2026-04-30 21:55 | 25.35220 | -80.36669 | 15450 ft | 405 kts | 212° |
| 2026-04-30 21:55 | 25.32756 | -80.38220 | 16100 ft | 409 kts | 212° |
| 2026-04-30 21:55 | 25.30268 | -80.39785 | 16738 ft | 414 kts | 212° |
| 2026-04-30 21:56 | 25.27750 | -80.41369 | 17337 ft | 419 kts | 212° |
| 2026-04-30 21:56 | 25.25200 | -80.42972 | 17970 ft | 423 kts | 212° |
| 2026-04-30 21:56 | 25.22585 | -80.44502 | 18521 ft | 428 kts | 205° |
| 2026-04-30 21:56 | 25.19740 | -80.45572 | 18959 ft | 436 kts | 198° |
| 2026-04-30 21:57 | 25.16832 | -80.46442 | 19432 ft | 441 kts | 197° |
| 2026-04-30 21:57 | 25.13855 | -80.47318 | 19933 ft | 445 kts | 198° |
| 2026-04-30 21:57 | 25.10846 | -80.48232 | 20443 ft | 448 kts | 198° |
| 2026-04-30 21:57 | 25.07836 | -80.49179 | 20919 ft | 452 kts | 199° |
| 2026-04-30 21:58 | 25.04798 | -80.50159 | 21389 ft | 457 kts | 199° |
| 2026-04-30 21:58 | 25.01733 | -80.51161 | 21843 ft | 461 kts | 199° |
| 2026-04-30 21:58 | 24.98649 | -80.52172 | 22298 ft | 465 kts | 199° |
| 2026-04-30 21:58 | 24.95531 | -80.53193 | 22740 ft | 469 kts | 199° |
| 2026-04-30 21:59 | 24.92384 | -80.54223 | 23172 ft | 473 kts | 199° |
| 2026-04-30 21:59 | 24.89208 | -80.55259 | 23558 ft | 478 kts | 199° |
| 2026-04-30 21:59 | 24.86014 | -80.56302 | 23921 ft | 478 kts | 200° |
| 2026-04-30 22:00 | 24.80520 | -80.60066 | 24456 ft | 471 kts | 232° |
| 2026-04-30 22:00 | 24.76305 | -80.65462 | 24909 ft | 477 kts | 217° |
| 2026-04-30 22:00 | 24.73258 | -80.67006 | 25174 ft | 489 kts | 196° |
| 2026-04-30 22:01 | 24.69859 | -80.67350 | 25598 ft | 490 kts | 179° |
| 2026-04-30 22:01 | 24.66461 | -80.67320 | 25819 ft | 491 kts | 185° |
| 2026-04-30 22:01 | 24.63055 | -80.67741 | 26064 ft | 495 kts | 191° |
| 2026-04-30 22:01 | 24.59659 | -80.68415 | 26478 ft | 495 kts | 193° |
| 2026-04-30 22:02 | 24.56277 | -80.69168 | 26941 ft | 496 kts | 193° |
| 2026-04-30 22:02 | 24.52939 | -80.69905 | 27361 ft | 497 kts | 192° |
| 2026-04-30 22:02 | 24.49533 | -80.70617 | 27732 ft | 500 kts | 192° |
| 2026-04-30 22:02 | 24.46094 | -80.71293 | 28094 ft | 502 kts | 191° |
| 2026-04-30 22:03 | 24.42646 | -80.71938 | 28451 ft | 504 kts | 191° |
| 2026-04-30 22:03 | 24.39176 | -80.72568 | 28805 ft | 506 kts | 190° |
| 2026-04-30 22:03 | 24.35689 | -80.73192 | 29148 ft | 508 kts | 190° |
| 2026-04-30 22:03 | 24.32191 | -80.73816 | 29473 ft | 510 kts | 190° |
| 2026-04-30 22:04 | 24.28680 | -80.74444 | 29819 ft | 511 kts | 190° |
| 2026-04-30 22:04 | 24.25165 | -80.75075 | 30241 ft | 510 kts | 190° |
| 2026-04-30 22:04 | 24.18185 | -80.76331 | 31018 ft | 508 kts | 191° |
| 2026-04-30 22:05 | 24.14691 | -80.76962 | 31347 ft | 509 kts | 191° |
| 2026-04-30 22:05 | 24.11235 | -80.77585 | 31688 ft | 509 kts | 191° |
| 2026-04-30 22:05 | 24.07725 | -80.78218 | 31998 ft | 510 kts | 191° |
| 2026-04-30 22:05 | 24.04218 | -80.78850 | 32267 ft | 512 kts | 191° |
| 2026-04-30 22:06 | 24.00700 | -80.79483 | 32607 ft | 511 kts | 191° |
| 2026-04-30 22:06 | 23.93657 | -80.80749 | 32897 ft | 516 kts | 191° |
| 2026-04-30 22:06 | 23.90119 | -80.81385 | 32972 ft | 514 kts | 191° |
| 2026-04-30 22:07 | 23.83083 | -80.82646 | 32954 ft | 509 kts | 191° |
| 2026-04-30 22:07 | 23.76091 | -80.83900 | 32945 ft | 509 kts | 191° |
| 2026-04-30 22:08 | 23.69100 | -80.85152 | 32956 ft | 510 kts | 191° |
| 2026-04-30 22:08 | 23.62132 | -80.86399 | 32953 ft | 511 kts | 191° |
| 2026-04-30 22:09 | 23.55096 | -80.87656 | 32947 ft | 513 kts | 191° |
| 2026-04-30 22:09 | 23.48033 | -80.88917 | 32937 ft | 514 kts | 191° |
| 2026-04-30 22:10 | 23.40964 | -80.90177 | 32938 ft | 515 kts | 191° |
| 2026-04-30 22:10 | 23.33875 | -80.91439 | 32943 ft | 516 kts | 191° |
| 2026-04-30 22:11 | 23.23276 | -80.93324 | 32936 ft | 515 kts | 191° |
| 2026-04-30 22:12 | 23.16200 | -80.94581 | 32923 ft | 514 kts | 191° |
| 2026-04-30 22:12 | 23.09170 | -80.95829 | 32928 ft | 513 kts | 191° |
| 2026-04-30 22:13 | 23.02138 | -80.97198 | 32921 ft | 512 kts | 195° |
| 2026-04-30 22:13 | 22.95385 | -80.99636 | 32931 ft | 510 kts | 202° |
| 2026-04-30 22:14 | 22.89874 | -81.01911 | 32927 ft | 510 kts | 202° |
| 2026-04-30 22:14 | 22.82133 | -81.05063 | 32909 ft | 512 kts | 201° |
| 2026-04-30 22:15 | 22.75436 | -81.07748 | 32929 ft | 514 kts | 201° |
| 2026-04-30 22:15 | 22.69840 | -81.09981 | 32920 ft | 516 kts | 201° |
| 2026-04-30 22:16 | 22.63082 | -81.12676 | 32919 ft | 518 kts | 201° |
| 2026-04-30 22:17 | 22.49539 | -81.18075 | 32909 ft | 520 kts | 201° |
| 2026-04-30 22:17 | 22.39343 | -81.22132 | 32921 ft | 520 kts | 201° |
| 2026-04-30 22:18 | 22.29147 | -81.26183 | 32925 ft | 520 kts | 201° |
| 2026-04-30 22:19 | 22.18987 | -81.30214 | 32927 ft | 519 kts | 201° |
| 2026-04-30 22:20 | 22.08834 | -81.34235 | 32931 ft | 518 kts | 201° |
| 2026-04-30 22:20 | 21.98697 | -81.38244 | 32930 ft | 517 kts | 201° |
| 2026-04-30 22:21 | 21.91981 | -81.40897 | 32934 ft | 516 kts | 201° |
| 2026-04-30 22:21 | 21.85232 | -81.43561 | 32930 ft | 517 kts | 201° |
| 2026-04-30 22:22 | 21.78461 | -81.46230 | 32937 ft | 518 kts | 201° |
| 2026-04-30 22:22 | 21.71680 | -81.48901 | 32935 ft | 519 kts | 201° |
| 2026-04-30 22:23 | 21.64877 | -81.51579 | 32937 ft | 520 kts | 201° |
| 2026-04-30 22:23 | 21.58189 | -81.54537 | 32945 ft | 519 kts | 209° |
| 2026-04-30 22:24 | 21.51891 | -81.58283 | 32937 ft | 520 kts | 211° |
| 2026-04-30 22:24 | 21.45554 | -81.62094 | 32938 ft | 522 kts | 210° |
| 2026-04-30 22:25 | 21.39185 | -81.65876 | 32920 ft | 523 kts | 210° |
| 2026-04-30 22:25 | 21.32815 | -81.69625 | 32934 ft | 522 kts | 210° |
| 2026-04-30 22:26 | 21.23270 | -81.75230 | 32931 ft | 520 kts | 210° |
| 2026-04-30 22:27 | 21.16965 | -81.78932 | 32931 ft | 518 kts | 210° |
| 2026-04-30 22:27 | 21.07481 | -81.84495 | 32930 ft | 517 kts | 210° |
| 2026-04-30 22:28 | 20.98013 | -81.90040 | 32932 ft | 517 kts | 210° |
| 2026-04-30 22:29 | 20.85422 | -81.97401 | 32933 ft | 517 kts | 210° |
| 2026-04-30 22:31 | 20.63237 | -82.10338 | 32929 ft | 520 kts | 210° |
| 2026-04-30 22:32 | 20.47368 | -82.19565 | 32925 ft | 519 kts | 210° |
| 2026-04-30 22:33 | 20.31543 | -82.28745 | 32925 ft | 518 kts | 210° |
| 2026-04-30 22:35 | 20.15711 | -82.37910 | 32920 ft | 517 kts | 211° |
| 2026-04-30 22:36 | 20.02287 | -82.43266 | 32923 ft | 521 kts | 193° |
| 2026-04-30 22:36 | 19.98739 | -82.44042 | 32926 ft | 521 kts | 193° |
| 2026-04-30 22:37 | 19.84563 | -82.47159 | 32921 ft | 519 kts | 194° |
| 2026-04-30 22:38 | 19.70360 | -82.50381 | 32932 ft | 530 kts | 194° |
| 2026-04-30 22:38 | 19.63143 | -82.52018 | 33362 ft | 532 kts | 193° |
| 2026-04-30 22:39 | 19.59559 | -82.52828 | 34023 ft | 523 kts | 193° |
| 2026-04-30 22:39 | 19.49022 | -82.55206 | 34899 ft | 514 kts | 193° |
| 2026-04-30 22:40 | 19.38602 | -82.57559 | 34919 ft | 508 kts | 193° |
| 2026-04-30 22:41 | 19.21110 | -82.61503 | 34920 ft | 523 kts | 193° |
| 2026-04-30 22:43 | 18.99851 | -82.66280 | 34910 ft | 519 kts | 193° |
| 2026-04-30 22:44 | 18.85763 | -82.69440 | 34907 ft | 515 kts | 193° |
| 2026-04-30 22:45 | 18.64871 | -82.74116 | 34906 ft | 511 kts | 193° |
| 2026-04-30 22:47 | 18.44053 | -82.78763 | 34897 ft | 509 kts | 193° |
| 2026-04-30 22:48 | 18.30204 | -82.81849 | 34912 ft | 511 kts | 193° |
| 2026-04-30 22:49 | 18.19646 | -82.84199 | 34920 ft | 524 kts | 193° |
| 2026-04-30 22:49 | 18.08913 | -82.86583 | 34902 ft | 526 kts | 193° |
| 2026-04-30 22:51 | 17.87487 | -82.91334 | 34903 ft | 522 kts | 193° |
| 2026-04-30 22:52 | 17.76888 | -82.93681 | 34899 ft | 520 kts | 193° |
| 2026-04-30 22:53 | 17.62727 | -82.96811 | 34901 ft | 519 kts | 193° |
| 2026-04-30 22:53 | 17.52124 | -82.99152 | 34900 ft | 518 kts | 193° |
| 2026-04-30 22:55 | 17.34526 | -83.03030 | 34894 ft | 518 kts | 193° |
| 2026-04-30 22:56 | 17.20436 | -83.06130 | 34894 ft | 516 kts | 193° |
| 2026-04-30 22:57 | 17.02955 | -83.09969 | 34894 ft | 513 kts | 193° |
| 2026-04-30 22:58 | 16.89006 | -83.13027 | 34899 ft | 510 kts | 193° |
| 2026-04-30 22:59 | 16.68221 | -83.17577 | 34894 ft | 510 kts | 193° |